This is the latest recevied weather packets stored in our database for station/object DL3TR-13. If no packets are shown the sender has not sent any weather packets the latest 10 day(s).
| Time | Temp. | Humidity | Pressure | Rain* | Wind** | Luminosity | Snow |
|---|---|---|---|---|---|---|---|
| 1777534393 | 10.56° C | 46% | 1021.5 hPa | 0 mm | - | 508 W/m² | - |
| 1777533793 | 10.56° C | 46% | 1021.5 hPa | 0 mm | - | 482 W/m² | - |
| 1777533193 | 11.11° C | 45% | 1021.3 hPa | 0 mm | - | 455 W/m² | - |
| 1777532593 | 10.56° C | 45% | 1021.2 hPa | 0 mm | - | 427 W/m² | - |
| 1777531993 | 10.56° C | 44% | 1021.2 hPa | 0 mm | - | 399 W/m² | - |
| 1777531393 | 10° C | 45% | 1021.1 hPa | 0 mm | - | 373 W/m² | - |
| 1777530793 | 9.44° C | 47% | 1021.2 hPa | 0 mm | - | 341 W/m² | - |
| 1777530193 | 9.44° C | 46% | 1021.2 hPa | 0 mm | - | 313 W/m² | - |
| 1777529593 | 8.89° C | 47% | 1021 hPa | 0 mm | - | 285 W/m² | - |
| 1777528993 | 8.33° C | 50% | 1021.1 hPa | 0 mm | - | 257 W/m² | - |
| 1777528393 | 7.78° C | 52% | 1021.1 hPa | 0 mm | - | 227 W/m² | - |
| 1777527793 | 7.22° C | 54% | 1021.2 hPa | 0 mm | - | 202 W/m² | - |
| 1777527193 | 6.67° C | 57% | 1021 hPa | 0 mm | - | 62 W/m² | - |
| 1777526593 | 5.56° C | 62% | 1021 hPa | 0 mm | - | 23 W/m² | - |
| 1777525993 | 4.44° C | 65% | 1021.1 hPa | 0 mm | - | 21 W/m² | - |
| 1777525393 | 3.89° C | 67% | 1021 hPa | 0 mm | - | 19 W/m² | - |
| 1777524793 | 4.44° C | 63% | 1021.1 hPa | 0 mm | - | 16 W/m² | - |
| 1777524208 | 4.44° C | 62% | 1021 hPa | 0 mm | - | 14 W/m² | - |
| 1777523593 | 4.44° C | 61% | 1021 hPa | 0 mm | - | 11 W/m² | - |
| 1777522993 | 5° C | 59% | 1020.7 hPa | 0 mm | - | 7 W/m² | - |
| 1777522393 | 5.56° C | 58% | 1020.8 hPa | 0 mm | - | 5 W/m² | - |
| 1777521793 | 5.56° C | 57% | 1020.7 hPa | 0 mm | - | 0 W/m² | - |
| 1777521192 | 5.56° C | 57% | 1020.6 hPa | 0 mm | - | 0 W/m² | - |
| 1777520593 | 5.56° C | 57% | 1020.6 hPa | 0 mm | - | 0 W/m² | - |
| 1777519993 | 6.11° C | 56% | 1020.6 hPa | 0 mm | - | 0 W/m² | - |
* Rain latest hour (hover to see other rain measurements)
** Current wind speed in m/s (hover to see current wind gust speed)